createdAt,value
2023-03-11T00:00:01.074Z,29.50
2023-03-11T00:10:01.068Z,23.70
2023-03-11T00:20:01.015Z,30.60
2023-03-11T00:30:00.970Z,35.30
2023-03-11T00:40:01.075Z,41.00
2023-03-11T00:50:01.198Z,60.00
2023-03-11T01:00:01.313Z,22.10
2023-03-11T01:10:01.262Z,28.00
2023-03-11T01:20:01.045Z,24.40
2023-03-11T01:30:01.083Z,35.20
2023-03-11T01:40:01.462Z,35.40
2023-03-11T01:50:01.122Z,22.50
2023-03-11T02:00:01.877Z,48.00
2023-03-11T02:10:01.947Z,47.00
2023-03-11T02:20:00.234Z,30.80
2023-03-11T02:30:01.022Z,39.30
2023-03-11T02:40:01.429Z,26.80
2023-03-11T02:50:01.442Z,31.00
2023-03-11T03:00:01.316Z,25.40
2023-03-11T03:10:01.913Z,30.20
2023-03-11T03:20:01.531Z,27.00
2023-03-11T03:30:01.017Z,33.20
2023-03-11T03:40:02.969Z,30.00
2023-03-11T03:50:01.199Z,25.50
2023-03-11T04:00:01.378Z,18.50
2023-03-11T04:10:01.310Z,27.00
2023-03-11T04:20:01.319Z,25.30
2023-03-11T04:30:01.081Z,32.50
2023-03-11T04:40:01.581Z,31.90
2023-03-11T04:50:01.023Z,18.60
2023-03-11T05:00:01.097Z,32.30
2023-03-11T05:10:01.310Z,24.90
2023-03-11T05:20:01.338Z,24.60
2023-03-11T05:30:01.002Z,30.30
2023-03-11T05:40:01.518Z,23.10
2023-03-11T05:50:01.038Z,28.90
2023-03-11T06:00:01.389Z,26.30
2023-03-11T06:10:03.250Z,34.30
2023-03-11T06:20:01.052Z,34.20
2023-03-11T06:30:01.303Z,39.50
2023-03-11T06:40:01.078Z,26.10
2023-03-11T06:50:01.099Z,34.50
2023-03-11T07:00:01.076Z,32.90
2023-03-11T07:10:01.497Z,44.60
2023-03-11T07:20:01.052Z,53.70
2023-03-11T07:30:01.012Z,42.00
2023-03-11T07:40:01.245Z,56.80
2023-03-11T07:50:00.949Z,48.40
2023-03-11T08:00:01.097Z,53.00
2023-03-11T08:10:01.796Z,60.10
2023-03-11T08:20:01.104Z,43.90
2023-03-11T08:30:01.956Z,34.60
2023-03-11T08:40:01.057Z,49.00
2023-03-11T08:50:01.015Z,54.80
2023-03-11T09:00:01.300Z,60.20
2023-03-11T09:10:01.020Z,36.30
2023-03-11T09:20:01.070Z,39.70
2023-03-11T09:30:01.188Z,58.90
2023-03-11T09:40:01.068Z,31.20
2023-03-11T09:50:01.425Z,40.10
2023-03-11T10:00:01.015Z,39.70
2023-03-11T10:10:01.869Z,45.10
2023-03-11T10:20:01.072Z,38.30
2023-03-11T10:30:01.065Z,44.80
2023-03-11T10:40:01.138Z,68.00
2023-03-11T10:50:01.047Z,43.60
2023-03-11T11:00:01.289Z,101.70
2023-03-11T11:10:01.373Z,101.70
2023-03-11T11:20:01.607Z,207.30
2023-03-11T11:30:01.610Z,70.40
2023-03-11T11:40:01.325Z,62.90
2023-03-11T11:50:02.336Z,46.50
2023-03-11T12:00:01.103Z,78.40
2023-03-11T12:10:09.943Z,160.20
2023-03-11T12:20:01.084Z,139.00
2023-03-11T12:30:01.123Z,157.40
2023-03-11T12:40:01.331Z,89.70
2023-03-11T12:50:01.507Z,76.20
2023-03-11T13:00:01.225Z,73.30
2023-03-11T13:10:01.090Z,82.20
2023-03-11T13:20:02.525Z,74.80
2023-03-11T13:30:01.511Z,76.70
2023-03-11T13:40:01.557Z,48.40
2023-03-11T13:50:02.164Z,85.80
2023-03-11T14:00:01.107Z,64.00
2023-03-11T14:10:01.580Z,44.60
2023-03-11T14:20:02.162Z,85.60
2023-03-11T14:30:02.736Z,81.60
2023-03-11T14:40:01.378Z,62.00
2023-03-11T14:50:01.059Z,56.80
2023-03-11T15:00:02.186Z,70.30
2023-03-11T15:10:01.036Z,32.60
2023-03-11T15:20:01.176Z,29.60
2023-03-11T15:30:01.667Z,18.70
2023-03-11T15:40:01.260Z,22.50
2023-03-11T15:50:01.114Z,25.40
2023-03-11T16:00:01.634Z,17.80
2023-03-11T16:10:03.266Z,11.60
2023-03-11T16:20:01.492Z,16.30
2023-03-11T16:30:01.104Z,12.30
2023-03-11T16:40:01.184Z,24.30
2023-03-11T16:50:01.252Z,24.90
2023-03-11T17:00:02.147Z,41.20
2023-03-11T17:10:01.074Z,33.80
2023-03-11T17:20:02.212Z,23.10
2023-03-11T17:30:01.071Z,23.50
2023-03-11T17:40:02.745Z,27.50
2023-03-11T17:50:01.284Z,34.80
2023-03-11T18:00:01.509Z,82.40
2023-03-11T18:10:01.308Z,21.00
2023-03-11T18:20:01.995Z,18.70
2023-03-11T18:30:01.859Z,17.60
2023-03-11T18:40:01.259Z,16.70
2023-03-11T18:50:01.892Z,14.00
2023-03-11T19:10:01.037Z,41.40
2023-03-11T19:20:00.233Z,38.20
2023-03-11T19:40:01.083Z,29.60
2023-03-11T19:50:02.174Z,29.90
2023-03-11T20:00:02.014Z,43.80
2023-03-11T20:10:01.287Z,44.50
2023-03-11T20:20:01.098Z,48.30
2023-03-11T20:30:01.104Z,43.10
2023-03-11T20:40:01.932Z,47.10
2023-03-11T20:50:01.803Z,51.10
2023-03-11T21:00:01.275Z,39.60
2023-03-11T21:10:01.075Z,39.20
2023-03-11T21:20:02.439Z,28.90
2023-03-11T21:30:02.477Z,78.80
2023-03-11T21:40:02.339Z,43.90
2023-03-11T21:50:02.011Z,44.90
2023-03-11T22:00:01.338Z,24.80
2023-03-11T22:10:02.340Z,24.60
2023-03-11T22:20:02.007Z,33.30
2023-03-11T22:30:02.440Z,26.00
2023-03-11T22:40:01.018Z,50.90
2023-03-11T22:50:01.242Z,44.80
2023-03-11T23:00:04.109Z,25.60
2023-03-11T23:10:00.976Z,23.10
2023-03-11T23:20:01.510Z,27.10
2023-03-11T23:30:01.010Z,42.90
2023-03-11T23:40:01.457Z,35.30
2023-03-11T23:50:01.483Z,34.80
